Caledonia, MN (55921)

5:40 AM CDT on July 31, 2014 (GMT -0500)
La Crosse - Downtown (KWILACRO6) Elev 682 ft | 43.82 °N, 91.25 °W | Change Station

Current weather conditions updated 2 minutes ago

Clear
Clear
62.8 °F
Feels Like 62.8 °F
N
4.0
Wind Variable Wind from SSE
Gusts 8.0 mph

Today is forecast to be Warmer than yesterday.

Today
High -- | Low -- °F
--% Chance of Precip.
Yesterday
High -- | Low -- °F
Precip. -- in
5:54 AM 8:29 PM
Waxing Crescent, 17% visible
Pressure 29.99 in
Visibility 10.0 miles
Clouds Clear
Dew Point 60 °F
Humidity 89%
Rainfall 0.00 in
Snow Depth Not available.
UV 0 out of 12
Pollen 6.60 out of 12
Air Quality Not available.
Flu Activity Not available.
METAR KLSE 310953Z AUTO 14003KT 10SM CLR 17/15 A3001 RMK AO2 SLP156 T01670150

More Conditions Fewer Conditions

Pressure 29.99 in
Visibility 10.0 miles
Clouds Clear
Dew Point 60 °F
Humidity 89%
Rainfall 0.00 in
Snow Depth Not available.
UV 0 out of 12
Pollen 6.60 out of 12
Air Quality Not available.
Flu Activity Not available.
METAR KLSE 310953Z AUTO 14003KT 10SM CLR 17/15 A3001 RMK AO2 SLP156 T01670150

More Conditions Fewer Conditions

10-Day Weather Forecast

Almanac

Astronomy

Jul. 31, 2014 Rise Set
Actual Time 5:54 AM CDT 8:29 PM CDT
Civil Twilight 5:21 AM CDT 9:02 PM CDT
Nautical Twilight 4:40 AM CDT 9:43 PM CDT
Astronomical Twilight 3:53 AM CDT 10:30 PM CDT
Moon 10:31 AM CDT 10:32 PM CDT
Length of Visible Light 15h 41m
Length of Day
14h 35m
Tomorrow will be 2m 16s shorter.
Waxing Crescent, 17% of the Moon is Illuminated
Today
Waxing Crescent
Aug 3
First Quarter
Aug 10
Full
Aug 17
Last Quarter
Aug 25
New

Today's Extremes

State Highs State Lows

Community

WunderPhotos

Upload Photos

1,739,289 photos uploaded!

Nearby

Snow Depth

Station Depth Elevation
No new snow has been reported.

Earthquake Activity

City Distance Mag. Time & Date
No recent earthquake activity has been reported nearby.
Minimum magnitude displayed is 2.5.

Coastal Water Temperatures

Place Temperature
No Stations Reporting

Nearby Weather Stations

Station Location Temp. Dew Point Humidity Wind Precip. Elev Updated Type
La Crosse - Downtown, La Crosse, WI 62.8 °F 60 °F 89% SSE  at  4.0 mph 0.00 in / hr 682 ft 5:38 AM CDT Normal
Gillette at George, La Crosse, WI 63.5 °F 58 °F 84% North  at  0.0 mph 0.00 in / hr 659 ft 5:40 AM CDT Rapid Fire
DeSoto WI, DeSoto, WI 62.4 °F 58 °F 86% West  at  3.5 mph 0.00 in / hr 778 ft 5:40 AM CDT Rapid Fire
APRSWXNET La Crosse WI , La Crosse, WI 61 °F 58 °F 91% North  at  0 mph 0.00 in / hr 1272 ft 3:25 AM CDT MADIS
De Soto Wisconsin, De Soto, WI 58.9 °F 58 °F 98% ENE  at  0.0 mph 0.00 in / hr 761 ft 5:40 AM CDT Rapid Fire

Show More Stations Show Fewer Stations